createdAt,value
2022-10-31T00:01:32.271Z,4.63
2022-10-31T00:03:58.794Z,3.20
2022-10-31T00:06:26.261Z,3.80
2022-10-31T00:08:55.609Z,3.22
2022-10-31T00:11:22.697Z,2.97
2022-10-31T00:13:49.373Z,3.90
2022-10-31T00:16:17.898Z,3.30
2022-10-31T00:18:44.857Z,3.95
2022-10-31T00:21:11.480Z,3.05
2022-10-31T00:23:38.014Z,3.83
2022-10-31T00:26:05.998Z,3.50
2022-10-31T00:28:33.137Z,5.47
2022-10-31T00:31:04.581Z,4.70
2022-10-31T00:33:31.634Z,5.28
2022-10-31T00:35:58.172Z,5.40
2022-10-31T00:38:24.775Z,3.90
2022-10-31T00:40:51.370Z,4.30
2022-10-31T00:43:17.967Z,4.13
2022-10-31T00:45:45.006Z,4.70
2022-10-31T00:48:11.609Z,4.93
2022-10-31T00:50:38.861Z,4.00
2022-10-31T00:53:05.854Z,3.45
2022-10-31T00:55:32.667Z,4.18
2022-10-31T00:57:59.540Z,4.35
2022-10-31T01:00:26.727Z,5.13
2022-10-31T01:02:53.290Z,3.85
2022-10-31T01:05:20.241Z,4.57
2022-10-31T01:07:46.806Z,3.88
2022-10-31T01:10:13.992Z,4.70
2022-10-31T01:12:43.067Z,5.45
2022-10-31T01:15:10.650Z,5.03
2022-10-31T01:17:37.383Z,5.00
2022-10-31T01:20:05.937Z,4.75
2022-10-31T01:22:33.445Z,4.93
2022-10-31T01:25:00.013Z,4.13
2022-10-31T01:27:26.809Z,4.32
2022-10-31T01:29:53.386Z,3.80
2022-10-31T01:32:19.964Z,4.05
2022-10-31T01:34:46.554Z,5.05
2022-10-31T01:37:13.562Z,4.65
2022-10-31T01:39:40.193Z,3.55
2022-10-31T01:42:06.721Z,3.60
2022-10-31T01:44:33.243Z,3.28
2022-10-31T01:47:02.142Z,3.50
2022-10-31T01:49:52.042Z,3.17
2022-10-31T01:52:44.077Z,3.17
2022-10-31T01:55:16.380Z,4.07
2022-10-31T01:57:46.497Z,3.35
2022-10-31T02:00:13.690Z,4.47
2022-10-31T02:02:41.002Z,4.32
2022-10-31T02:16:43.853Z,3.17
2022-10-31T02:19:15.844Z,3.58
2022-10-31T02:21:52.250Z,3.40
2022-10-31T02:24:41.235Z,3.42
2022-10-31T02:27:33.793Z,3.92
2022-10-31T02:30:08.297Z,3.67
2022-10-31T02:32:52.902Z,4.80
2022-10-31T02:35:40.773Z,5.03
2022-10-31T02:38:25.739Z,4.70
2022-10-31T02:40:58.431Z,5.28
2022-10-31T02:43:39.409Z,4.30
2022-10-31T02:46:16.530Z,5.28
2022-10-31T02:48:46.707Z,5.00
2022-10-31T02:51:13.757Z,6.13
2022-10-31T02:53:40.794Z,6.30
2022-10-31T02:56:16.870Z,6.30
2022-10-31T02:58:51.863Z,6.10
2022-10-31T03:01:43.919Z,5.43
2022-10-31T03:04:13.473Z,6.20
2022-10-31T03:06:54.854Z,6.20
2022-10-31T03:09:24.056Z,6.50
2022-10-31T03:12:02.721Z,7.07
2022-10-31T03:15:03.134Z,6.78
2022-10-31T03:17:38.487Z,7.05
2022-10-31T03:20:10.511Z,6.85
2022-10-31T03:22:41.635Z,6.82
2022-10-31T03:25:08.921Z,6.63
2022-10-31T03:27:39.002Z,7.80
2022-10-31T03:30:08.922Z,7.90
2022-10-31T03:32:52.905Z,7.05
2022-10-31T03:35:24.163Z,7.20
2022-10-31T03:37:53.330Z,6.28
2022-10-31T03:40:22.910Z,5.22
2022-10-31T03:42:55.872Z,6.47
2022-10-31T03:45:26.216Z,6.05
2022-10-31T03:47:54.628Z,6.82
2022-10-31T03:50:25.045Z,6.22
2022-10-31T03:53:00.368Z,6.00
2022-10-31T03:55:27.043Z,6.60
2022-10-31T03:58:40.296Z,6.85
2022-10-31T04:01:13.217Z,6.95
2022-10-31T04:03:40.323Z,7.45
2022-10-31T04:06:09.950Z,6.75
2022-10-31T04:08:41.766Z,7.03
2022-10-31T04:11:10.536Z,7.05
2022-10-31T04:13:39.426Z,6.97
2022-10-31T04:16:06.727Z,6.07
2022-10-31T04:18:33.339Z,7.60
2022-10-31T04:21:02.302Z,7.82
2022-10-31T04:23:29.667Z,7.95
2022-10-31T04:25:56.472Z,7.18
2022-10-31T04:28:23.649Z,7.55
2022-10-31T04:30:50.212Z,7.88
2022-10-31T04:33:17.022Z,7.90
2022-10-31T04:35:43.598Z,8.00
2022-10-31T04:38:10.231Z,7.78
2022-10-31T04:40:36.805Z,7.85
2022-10-31T04:43:03.883Z,7.47
2022-10-31T04:45:30.647Z,7.47
2022-10-31T04:47:57.598Z,7.78
2022-10-31T04:50:24.590Z,7.80
2022-10-31T04:52:51.699Z,7.82
2022-10-31T04:55:18.353Z,7.88
2022-10-31T04:57:47.267Z,7.75
2022-10-31T05:00:15.868Z,7.55
2022-10-31T05:03:00.876Z,8.68
2022-10-31T05:05:30.478Z,7.78
2022-10-31T05:07:57.446Z,7.95
2022-10-31T05:10:26.679Z,8.90
2022-10-31T05:12:55.846Z,7.90
2022-10-31T05:15:24.297Z,7.85
2022-10-31T05:17:51.364Z,8.25
2022-10-31T05:20:19.778Z,7.93
2022-10-31T05:22:50.818Z,8.25
2022-10-31T05:25:18.940Z,7.68
2022-10-31T05:27:47.684Z,7.95
2022-10-31T05:30:17.995Z,7.93
2022-10-31T05:32:46.694Z,8.13
2022-10-31T05:35:16.527Z,8.00
2022-10-31T05:37:44.532Z,7.85
2022-10-31T05:40:13.592Z,7.88
2022-10-31T05:42:41.239Z,7.75
2022-10-31T05:45:13.107Z,7.72
2022-10-31T05:47:40.018Z,7.10
2022-10-31T05:50:08.235Z,7.10
2022-10-31T05:52:34.846Z,7.43
2022-10-31T05:55:01.536Z,6.97
2022-10-31T05:57:29.910Z,7.25
2022-10-31T05:59:56.422Z,7.03
2022-10-31T06:02:23.174Z,7.57
2022-10-31T06:04:49.844Z,7.10
2022-10-31T06:07:16.428Z,7.70
2022-10-31T06:09:42.980Z,7.72
2022-10-31T06:12:09.564Z,7.43
2022-10-31T06:14:36.120Z,7.10
2022-10-31T06:17:02.643Z,7.70
2022-10-31T06:19:29.197Z,6.93
2022-10-31T06:21:55.933Z,6.35
2022-10-31T06:24:22.470Z,7.03
2022-10-31T06:26:49.029Z,7.78
2022-10-31T06:29:15.977Z,7.72
2022-10-31T06:31:42.540Z,7.70
2022-10-31T06:34:09.231Z,7.50
2022-10-31T06:36:36.027Z,7.97
2022-10-31T06:39:02.807Z,7.72
2022-10-31T06:41:29.382Z,8.25
2022-10-31T06:43:55.937Z,7.82
2022-10-31T06:46:22.461Z,7.40
2022-10-31T06:48:49.142Z,7.82
2022-10-31T06:51:15.815Z,8.43
2022-10-31T06:53:42.352Z,8.10
2022-10-31T06:56:08.894Z,7.90
2022-10-31T06:58:35.553Z,7.78
2022-10-31T07:01:02.577Z,8.23
2022-10-31T07:03:29.171Z,7.97
2022-10-31T07:05:57.641Z,8.30
2022-10-31T07:08:24.605Z,8.63
2022-10-31T07:10:57.030Z,8.50
2022-10-31T07:13:27.599Z,8.93
2022-10-31T07:16:01.628Z,8.55
2022-10-31T07:18:28.598Z,7.97
2022-10-31T07:20:55.351Z,9.38
2022-10-31T07:23:22.938Z,8.27
2022-10-31T07:25:49.539Z,8.10
2022-10-31T07:28:16.253Z,8.35
2022-10-31T07:30:42.768Z,7.85
2022-10-31T07:33:09.453Z,7.80
2022-10-31T07:35:36.336Z,8.40
2022-10-31T07:38:13.722Z,7.63
2022-10-31T07:40:41.503Z,8.00
2022-10-31T07:43:11.512Z,7.93
2022-10-31T07:45:40.479Z,6.75
2022-10-31T07:48:07.061Z,7.55
2022-10-31T07:50:35.174Z,7.57
2022-10-31T07:53:01.740Z,6.95
2022-10-31T07:55:28.912Z,6.47
2022-10-31T07:58:13.085Z,6.30
2022-10-31T08:00:41.896Z,6.45
2022-10-31T08:03:14.900Z,5.90
2022-10-31T08:05:42.128Z,5.68
2022-10-31T08:08:09.429Z,5.78
2022-10-31T08:10:36.727Z,5.88
2022-10-31T08:13:08.443Z,6.00
2022-10-31T08:15:38.113Z,5.82
2022-10-31T08:18:05.293Z,6.35
2022-10-31T08:20:31.923Z,6.50
2022-10-31T08:23:04.351Z,6.63
2022-10-31T08:25:37.150Z,7.65
2022-10-31T08:28:06.431Z,5.95
2022-10-31T08:30:35.980Z,5.90
2022-10-31T08:33:13.605Z,6.57
2022-10-31T08:35:40.635Z,6.43
2022-10-31T08:38:08.676Z,7.00
2022-10-31T08:40:36.279Z,6.20
2022-10-31T08:43:11.468Z,6.18
2022-10-31T08:45:38.079Z,6.30
2022-10-31T08:48:07.286Z,6.03
2022-10-31T08:50:36.239Z,6.32
2022-10-31T08:53:12.792Z,5.45
2022-10-31T08:55:40.631Z,6.07
2022-10-31T08:58:10.546Z,5.90
2022-10-31T09:00:37.568Z,6.25
2022-10-31T09:03:07.398Z,5.63
2022-10-31T09:05:34.543Z,5.65
2022-10-31T09:08:03.599Z,5.82
2022-10-31T09:10:31.450Z,5.70
2022-10-31T09:13:08.115Z,5.75
2022-10-31T09:15:36.730Z,6.38
2022-10-31T09:18:04.302Z,5.97
2022-10-31T09:20:33.210Z,5.47
2022-10-31T09:23:02.104Z,5.78
2022-10-31T09:25:29.423Z,5.60
2022-10-31T09:28:00.376Z,5.43
2022-10-31T09:30:30.709Z,5.30
2022-10-31T09:33:02.314Z,5.10
2022-10-31T09:35:29.360Z,5.88
2022-10-31T09:38:00.892Z,5.45
2022-10-31T09:41:03.776Z,5.38
2022-10-31T09:43:36.180Z,5.05
2022-10-31T09:46:29.115Z,4.97
2022-10-31T09:49:24.332Z,5.30
2022-10-31T09:52:24.693Z,4.50
2022-10-31T09:55:06.938Z,5.13
2022-10-31T09:57:36.722Z,4.80
2022-10-31T10:00:08.050Z,5.50
2022-10-31T10:02:45.631Z,5.18
2022-10-31T10:05:22.629Z,4.97
2022-10-31T10:08:04.386Z,5.00
2022-10-31T10:10:46.054Z,4.68
2022-10-31T10:13:50.087Z,4.93
2022-10-31T10:16:50.725Z,5.07
2022-10-31T10:19:41.361Z,5.03
2022-10-31T10:22:16.856Z,5.25
2022-10-31T10:25:11.528Z,4.53
2022-10-31T10:28:19.821Z,4.70
2022-10-31T10:30:51.552Z,4.68
2022-10-31T10:33:26.349Z,5.07
2022-10-31T10:36:00.927Z,4.80
2022-10-31T10:38:37.492Z,4.68
2022-10-31T10:41:11.018Z,4.47
2022-10-31T10:43:38.961Z,5.15
2022-10-31T10:46:30.141Z,5.32
2022-10-31T10:49:20.106Z,4.70
2022-10-31T10:52:40.851Z,4.50
2022-10-31T10:55:15.081Z,4.80
2022-10-31T10:57:44.455Z,4.80
2022-10-31T11:00:23.015Z,4.82
2022-10-31T11:02:50.417Z,4.80
2022-10-31T11:05:40.029Z,5.10
2022-10-31T11:08:07.589Z,4.82
2022-10-31T11:10:34.894Z,5.00
2022-10-31T11:13:22.265Z,4.55
2022-10-31T11:15:54.887Z,5.00
2022-10-31T11:18:28.170Z,4.72
2022-10-31T11:20:58.024Z,4.85
2022-10-31T11:23:26.609Z,4.78
2022-10-31T11:26:03.455Z,5.30
2022-10-31T11:28:33.219Z,5.10
2022-10-31T11:31:01.694Z,4.97
2022-10-31T11:33:47.327Z,5.15
2022-10-31T11:36:22.522Z,4.68
2022-10-31T11:38:49.948Z,4.97
2022-10-31T11:41:26.781Z,5.45
2022-10-31T11:43:57.202Z,5.40
2022-10-31T11:46:26.900Z,5.93
2022-10-31T11:48:56.131Z,5.10
2022-10-31T11:51:29.943Z,5.55
2022-10-31T11:54:02.668Z,5.45
2022-10-31T11:56:43.280Z,5.70
2022-10-31T11:59:21.943Z,4.97
2022-10-31T12:01:51.438Z,5.75
2022-10-31T12:04:18.569Z,5.50
2022-10-31T12:06:47.427Z,5.88
2022-10-31T12:09:25.209Z,5.55
2022-10-31T12:12:26.983Z,5.70
2022-10-31T12:15:37.784Z,5.28
2022-10-31T12:18:36.270Z,5.57
2022-10-31T12:21:26.109Z,5.65
2022-10-31T12:23:52.577Z,4.80
2022-10-31T12:26:46.970Z,5.30
2022-10-31T12:29:32.370Z,5.22
2022-10-31T12:32:11.003Z,5.20
2022-10-31T12:34:56.752Z,5.10
2022-10-31T12:37:35.502Z,5.97
2022-10-31T12:40:28.954Z,5.03
2022-10-31T12:43:04.399Z,5.57
2022-10-31T12:45:49.531Z,5.38
2022-10-31T12:48:37.452Z,5.38
2022-10-31T12:51:35.550Z,5.22
2022-10-31T12:54:11.004Z,5.32
2022-10-31T12:56:43.266Z,5.57
2022-10-31T12:59:15.797Z,5.50
2022-10-31T13:02:06.070Z,5.20
2022-10-31T13:04:44.665Z,4.68
2022-10-31T13:07:20.907Z,5.07
2022-10-31T13:09:57.606Z,5.05
2022-10-31T13:12:25.532Z,5.20
2022-10-31T13:15:12.878Z,5.47
2022-10-31T13:17:55.700Z,5.15
2022-10-31T13:20:30.277Z,5.53
2022-10-31T13:23:49.613Z,5.90
2022-10-31T13:26:30.152Z,5.63
2022-10-31T13:29:26.927Z,5.97
2022-10-31T13:31:56.547Z,5.00
2022-10-31T13:34:41.533Z,5.13
2022-10-31T13:37:32.867Z,5.53
2022-10-31T13:40:20.731Z,6.13
2022-10-31T13:43:03.942Z,5.07
2022-10-31T13:45:30.703Z,4.60
2022-10-31T13:48:07.567Z,4.82
2022-10-31T13:50:34.515Z,4.82
2022-10-31T13:53:19.289Z,4.32
2022-10-31T13:56:02.750Z,4.97
2022-10-31T13:58:33.352Z,4.68
2022-10-31T14:01:21.750Z,4.10
2022-10-31T14:04:13.071Z,4.63
2022-10-31T14:06:53.358Z,4.32
2022-10-31T14:09:27.320Z,4.82
2022-10-31T14:11:55.611Z,5.10
2022-10-31T14:14:28.255Z,4.40
2022-10-31T14:16:57.879Z,4.88
2022-10-31T14:19:25.553Z,4.85
2022-10-31T14:21:52.400Z,4.32
2022-10-31T14:24:25.023Z,4.45
2022-10-31T14:26:57.713Z,4.95
2022-10-31T14:29:44.453Z,4.45
2022-10-31T14:32:15.563Z,4.07
2022-10-31T14:34:58.672Z,4.50
2022-10-31T14:37:46.572Z,4.65
2022-10-31T14:40:32.751Z,4.90
2022-10-31T14:43:20.880Z,4.38
2022-10-31T14:45:53.149Z,4.60
2022-10-31T14:48:39.790Z,4.80
2022-10-31T14:51:22.156Z,4.53
2022-10-31T14:53:54.659Z,4.57
2022-10-31T14:56:28.283Z,4.93
2022-10-31T14:58:58.749Z,4.78
2022-10-31T15:01:33.716Z,4.45
2022-10-31T15:04:25.568Z,3.90
2022-10-31T15:07:03.328Z,4.10
2022-10-31T15:09:35.976Z,3.60
2022-10-31T15:12:26.208Z,4.20
2022-10-31T15:14:53.289Z,3.83
2022-10-31T15:17:21.367Z,3.78
2022-10-31T15:19:48.171Z,3.83
2022-10-31T15:22:19.152Z,3.53
2022-10-31T15:24:46.673Z,3.58
2022-10-31T15:27:16.119Z,3.90
2022-10-31T15:29:51.319Z,4.18
2022-10-31T15:32:26.601Z,4.43
2022-10-31T15:34:55.015Z,4.20
2022-10-31T15:37:25.238Z,4.15
2022-10-31T15:39:52.445Z,3.95
2022-10-31T15:42:29.474Z,4.32
2022-10-31T15:45:07.081Z,3.72
2022-10-31T15:47:34.557Z,3.78
2022-10-31T15:50:02.751Z,3.85
2022-10-31T15:52:29.834Z,4.00
2022-10-31T15:55:02.947Z,3.92
2022-10-31T15:57:29.902Z,4.03
2022-10-31T15:59:56.774Z,3.70
2022-10-31T16:02:28.371Z,3.70
2022-10-31T16:04:58.873Z,4.20
2022-10-31T16:07:26.659Z,3.88
2022-10-31T16:10:04.267Z,3.65
2022-10-31T16:12:37.921Z,4.00
2022-10-31T16:15:07.800Z,3.78
2022-10-31T16:17:34.434Z,3.90
2022-10-31T16:20:04.108Z,3.83
2022-10-31T16:22:39.945Z,3.78
2022-10-31T16:25:15.233Z,4.30
2022-10-31T16:27:54.056Z,4.30
2022-10-31T16:30:30.268Z,3.92
2022-10-31T16:33:02.370Z,4.75
2022-10-31T16:35:37.221Z,4.43
2022-10-31T16:38:05.156Z,4.43
2022-10-31T16:40:32.234Z,4.88
2022-10-31T16:43:00.906Z,4.20
2022-10-31T16:45:31.490Z,3.92
2022-10-31T16:48:12.752Z,4.63
2022-10-31T16:50:39.718Z,4.15
2022-10-31T16:53:14.883Z,4.28
2022-10-31T16:55:45.816Z,4.80
2022-10-31T16:58:19.992Z,4.30
2022-10-31T17:00:46.934Z,4.50
2022-10-31T17:03:13.570Z,4.70
2022-10-31T17:05:40.158Z,4.72
2022-10-31T17:08:06.978Z,4.78
2022-10-31T17:10:34.266Z,4.47
2022-10-31T17:13:03.816Z,4.75
2022-10-31T17:15:42.339Z,5.32
2022-10-31T17:18:13.163Z,4.40
2022-10-31T17:20:40.175Z,4.47
2022-10-31T17:23:06.750Z,4.63
2022-10-31T17:25:33.317Z,4.50
2022-10-31T17:27:59.876Z,4.88
2022-10-31T17:30:26.487Z,4.78
2022-10-31T17:32:54.550Z,4.53
2022-10-31T17:35:21.831Z,4.90
2022-10-31T17:37:49.090Z,4.28
2022-10-31T17:40:20.887Z,4.95
2022-10-31T17:42:52.925Z,4.75
2022-10-31T17:45:21.166Z,4.90
2022-10-31T17:47:49.343Z,4.47
2022-10-31T17:50:17.379Z,4.65
2022-10-31T17:52:44.038Z,4.43
2022-10-31T17:55:11.313Z,5.25
2022-10-31T17:57:38.582Z,4.53
2022-10-31T18:00:08.493Z,4.60
2022-10-31T18:02:37.127Z,4.88
2022-10-31T18:05:05.364Z,5.00
2022-10-31T18:07:32.744Z,4.97
2022-10-31T18:09:59.949Z,5.03
2022-10-31T18:12:27.669Z,4.57
2022-10-31T18:14:54.283Z,4.78
2022-10-31T18:17:21.877Z,5.55
2022-10-31T18:19:48.415Z,4.90
2022-10-31T18:22:15.046Z,5.20
2022-10-31T18:24:41.566Z,5.13
2022-10-31T18:27:08.444Z,4.88
2022-10-31T18:29:35.281Z,5.15
2022-10-31T18:32:05.487Z,4.90
2022-10-31T18:34:35.934Z,4.65
2022-10-31T18:37:02.947Z,5.20
2022-10-31T18:39:29.547Z,5.07
2022-10-31T18:41:56.428Z,5.10
2022-10-31T18:44:23.007Z,4.90
2022-10-31T18:46:49.524Z,4.65
2022-10-31T18:49:22.419Z,5.43
2022-10-31T18:51:52.604Z,4.75
2022-10-31T18:54:19.194Z,4.90
2022-10-31T18:56:45.860Z,5.25
2022-10-31T18:59:12.712Z,4.68
2022-10-31T19:01:40.057Z,4.90
2022-10-31T19:04:07.118Z,5.13
2022-10-31T19:06:33.944Z,4.38
2022-10-31T19:09:03.301Z,4.90
2022-10-31T19:11:33.290Z,4.90
2022-10-31T19:13:59.887Z,5.03
2022-10-31T19:16:27.049Z,5.28
2022-10-31T19:18:56.235Z,4.78
2022-10-31T19:21:23.608Z,5.05
2022-10-31T19:23:52.833Z,4.95
2022-10-31T19:26:19.838Z,4.95
2022-10-31T19:28:46.368Z,5.25
2022-10-31T19:31:13.143Z,5.80
2022-10-31T19:33:39.872Z,5.53
2022-10-31T19:36:12.171Z,5.18
2022-10-31T19:38:41.603Z,4.85
2022-10-31T19:41:14.326Z,5.15
2022-10-31T19:43:41.123Z,5.30
2022-10-31T19:46:17.403Z,5.30
2022-10-31T19:48:54.839Z,4.85
2022-10-31T19:51:21.946Z,5.05
2022-10-31T19:53:49.801Z,5.10
2022-10-31T19:56:18.621Z,5.50
2022-10-31T19:58:45.333Z,5.55
2022-10-31T20:01:20.924Z,5.28
2022-10-31T20:03:48.737Z,5.47
2022-10-31T20:06:22.985Z,5.28
2022-10-31T20:08:49.831Z,5.72
2022-10-31T20:11:17.138Z,5.70
2022-10-31T20:13:43.802Z,5.45
2022-10-31T20:16:13.315Z,5.22
2022-10-31T20:18:40.656Z,5.53
2022-10-31T20:21:15.755Z,5.28
2022-10-31T20:23:43.131Z,5.43
2022-10-31T20:26:14.590Z,4.93
2022-10-31T20:28:43.311Z,5.15
2022-10-31T20:31:22.612Z,4.72
2022-10-31T20:33:49.753Z,5.63
2022-10-31T20:36:19.668Z,5.22
2022-10-31T20:38:46.672Z,5.60
2022-10-31T20:41:14.982Z,5.07
2022-10-31T20:43:42.213Z,4.35
2022-10-31T20:46:12.297Z,4.45
2022-10-31T20:48:39.143Z,4.60
2022-10-31T20:51:11.239Z,4.82
2022-10-31T20:53:38.059Z,4.68
2022-10-31T20:56:16.966Z,5.03
2022-10-31T20:58:44.851Z,4.60
2022-10-31T21:01:17.329Z,4.63
2022-10-31T21:03:44.730Z,5.20
2022-10-31T21:06:12.932Z,4.90
2022-10-31T21:08:40.552Z,5.35
2022-10-31T21:11:13.157Z,5.03
2022-10-31T21:13:41.968Z,5.05
2022-10-31T21:16:11.372Z,5.82
2022-10-31T21:18:39.933Z,5.22
2022-10-31T21:21:11.474Z,5.28
2022-10-31T21:23:38.410Z,4.82
2022-10-31T21:26:07.262Z,5.00
2022-10-31T21:28:34.006Z,4.88
2022-10-31T21:31:00.764Z,5.25
2022-10-31T21:33:27.330Z,4.50
2022-10-31T21:35:53.941Z,4.88
2022-10-31T21:38:20.526Z,4.78
2022-10-31T21:40:47.107Z,5.28
2022-10-31T21:43:13.663Z,5.47
2022-10-31T21:45:40.214Z,4.65
2022-10-31T21:48:07.031Z,5.07
2022-10-31T21:50:34.616Z,5.47
2022-10-31T21:53:21.136Z,5.15
2022-10-31T21:55:47.704Z,5.45
2022-10-31T21:58:14.223Z,4.78
2022-10-31T22:00:41.046Z,5.55
2022-10-31T22:03:07.613Z,5.47
2022-10-31T22:05:34.899Z,6.38
2022-10-31T22:08:01.885Z,6.28
2022-10-31T22:10:28.733Z,5.95
2022-10-31T22:12:55.285Z,5.53
2022-10-31T22:15:23.652Z,5.63
2022-10-31T22:17:50.190Z,5.38
2022-10-31T22:20:16.872Z,5.35
2022-10-31T22:22:43.390Z,5.63
2022-10-31T22:25:09.979Z,5.63
2022-10-31T22:27:38.660Z,6.18
2022-10-31T22:30:06.194Z,5.63
2022-10-31T22:32:32.747Z,6.25
2022-10-31T22:34:59.332Z,5.78
2022-10-31T22:37:25.863Z,6.30
2022-10-31T22:39:52.397Z,5.50
2022-10-31T22:42:18.983Z,6.10
2022-10-31T22:44:45.520Z,7.25
2022-10-31T22:47:12.072Z,6.10
2022-10-31T22:49:38.671Z,6.38
2022-10-31T22:52:05.548Z,6.63
2022-10-31T22:54:32.340Z,6.30
2022-10-31T22:56:58.922Z,6.78
2022-10-31T22:59:25.503Z,6.97
2022-10-31T23:01:54.453Z,6.47
2022-10-31T23:04:21.232Z,8.10
2022-10-31T23:06:49.158Z,7.00
2022-10-31T23:09:17.085Z,7.32
2022-10-31T23:11:44.339Z,7.60
2022-10-31T23:14:15.697Z,7.38
2022-10-31T23:16:55.639Z,7.88
2022-10-31T23:19:22.744Z,6.85
2022-10-31T23:21:56.276Z,8.07
2022-10-31T23:24:28.954Z,7.13
2022-10-31T23:27:09.675Z,9.18
2022-10-31T23:29:41.272Z,7.80
2022-10-31T23:32:13.985Z,8.43
2022-10-31T23:34:40.532Z,8.98
2022-10-31T23:39:35.025Z,8.15
2022-10-31T23:42:02.002Z,9.23
2022-10-31T23:44:28.909Z,9.07
2022-10-31T23:46:55.490Z,9.02
2022-10-31T23:49:22.193Z,9.90
2022-10-31T23:51:48.794Z,9.55
2022-10-31T23:54:15.414Z,9.15
2022-10-31T23:56:42.151Z,9.55
2022-10-31T23:59:08.845Z,10.20
